createdAt,value
2022-10-21T00:01:41.104Z,14.80
2022-10-21T00:04:11.259Z,14.70
2022-10-21T00:06:44.100Z,14.70
2022-10-21T00:09:18.777Z,14.70
2022-10-21T00:11:51.507Z,14.70
2022-10-21T00:14:32.922Z,14.70
2022-10-21T00:17:03.035Z,14.60
2022-10-21T00:19:33.080Z,14.60
2022-10-21T00:22:11.894Z,14.60
2022-10-21T00:24:41.938Z,14.60
2022-10-21T00:27:16.810Z,14.60
2022-10-21T00:29:49.660Z,14.60
2022-10-21T00:32:19.788Z,14.60
2022-10-21T00:34:50.279Z,14.60
2022-10-21T00:37:20.451Z,14.50
2022-10-21T00:39:50.622Z,14.50
2022-10-21T00:42:36.182Z,14.60
2022-10-21T00:45:30.724Z,14.70
2022-10-21T00:48:07.595Z,14.70
2022-10-21T00:50:42.743Z,14.70
2022-10-21T00:53:20.886Z,14.60
2022-10-21T00:55:57.964Z,14.60
2022-10-21T00:58:35.176Z,14.60
2022-10-21T01:03:54.126Z,14.40
2022-10-21T01:06:30.474Z,14.40
2022-10-21T01:09:02.371Z,14.30
2022-10-21T01:11:39.513Z,14.30
2022-10-21T01:14:56.176Z,14.20
2022-10-21T01:17:45.382Z,14.30
2022-10-21T01:21:03.025Z,14.30
2022-10-21T01:24:14.883Z,14.30
2022-10-21T01:27:13.176Z,14.40
2022-10-21T01:30:20.096Z,14.50
2022-10-21T01:33:29.602Z,14.40
2022-10-21T01:36:31.102Z,14.40
2022-10-21T01:39:21.192Z,14.40
2022-10-21T01:42:03.821Z,14.50
2022-10-21T01:44:55.883Z,14.50
2022-10-21T01:47:34.731Z,14.50
2022-10-21T01:50:16.247Z,14.50
2022-10-21T01:52:52.748Z,14.60
2022-10-21T01:55:31.370Z,14.70
2022-10-21T01:58:06.403Z,14.80
2022-10-21T02:00:39.897Z,14.90
2022-10-21T02:03:26.111Z,14.80
2022-10-21T02:06:01.218Z,14.80
2022-10-21T02:08:31.715Z,14.80
2022-10-21T02:11:08.751Z,14.80
2022-10-21T02:13:46.047Z,14.70
2022-10-21T02:16:21.719Z,14.60
2022-10-21T02:18:51.814Z,14.60
2022-10-21T02:21:29.625Z,14.50
2022-10-21T02:24:08.930Z,14.50
2022-10-21T02:26:41.313Z,14.50
2022-10-21T02:29:12.572Z,14.50
2022-10-21T02:32:12.129Z,14.50
2022-10-21T02:35:00.037Z,14.50
2022-10-21T02:37:41.444Z,14.60
2022-10-21T02:40:27.555Z,14.70
2022-10-21T02:43:06.475Z,14.60
2022-10-21T02:45:37.126Z,14.70
2022-10-21T02:48:07.638Z,14.70
2022-10-21T02:50:43.990Z,14.60
2022-10-21T02:53:18.962Z,14.60
2022-10-21T02:55:54.335Z,14.70
2022-10-21T02:58:26.891Z,14.60
2022-10-21T03:00:57.151Z,14.50
2022-10-21T03:03:29.905Z,14.40
2022-10-21T03:06:00.462Z,14.30
2022-10-21T03:08:38.122Z,14.10
2022-10-21T03:11:08.676Z,14.10
2022-10-21T03:13:38.793Z,14.00
2022-10-21T03:16:15.140Z,14.00
2022-10-21T03:18:45.445Z,14.10
2022-10-21T03:21:18.312Z,14.10
2022-10-21T03:23:50.981Z,14.20
2022-10-21T03:26:21.553Z,14.20
2022-10-21T03:28:54.236Z,14.30
2022-10-21T03:31:24.468Z,14.30
2022-10-21T03:33:54.537Z,14.30
2022-10-21T03:36:24.719Z,14.20
2022-10-21T03:38:59.727Z,14.20
2022-10-21T03:41:32.878Z,14.20
2022-10-21T03:44:02.937Z,14.10
2022-10-21T03:46:35.633Z,14.20
2022-10-21T03:49:15.478Z,14.20
2022-10-21T03:51:50.012Z,14.10
2022-10-21T03:54:22.752Z,14.10
2022-10-21T03:56:52.886Z,14.10
2022-10-21T03:59:22.951Z,14.10
2022-10-21T04:01:55.547Z,14.30
2022-10-21T04:04:25.628Z,14.40
2022-10-21T04:06:58.034Z,14.50
2022-10-21T04:09:31.105Z,14.50
2022-10-21T04:12:01.163Z,14.60
2022-10-21T04:14:31.205Z,14.60
2022-10-21T04:17:07.066Z,14.70
2022-10-21T04:19:37.642Z,14.80
2022-10-21T04:22:07.743Z,14.80
2022-10-21T04:24:40.454Z,14.70
2022-10-21T04:27:10.645Z,14.70
2022-10-21T04:29:40.672Z,14.60
2022-10-21T04:32:18.251Z,14.60
2022-10-21T04:34:51.387Z,14.60
2022-10-21T04:37:21.520Z,14.60
2022-10-21T04:39:54.134Z,14.60
2022-10-21T04:44:58.513Z,14.80
2022-10-21T04:47:28.582Z,14.90
2022-10-21T04:49:58.677Z,14.90
2022-10-21T04:52:28.785Z,14.80
2022-10-21T04:55:01.533Z,14.90
2022-10-21T04:57:31.580Z,14.90
2022-10-21T05:00:06.278Z,14.90
2022-10-21T05:02:36.978Z,14.80
2022-10-21T05:05:08.179Z,14.70
2022-10-21T05:07:38.386Z,14.70
2022-10-21T05:10:12.232Z,14.60
2022-10-21T05:12:42.315Z,14.70
2022-10-21T05:15:14.626Z,14.70
2022-10-21T05:17:44.700Z,14.80
2022-10-21T05:20:15.474Z,14.80
2022-10-21T05:22:49.492Z,15.00
2022-10-21T05:25:23.957Z,15.00
2022-10-21T05:27:54.322Z,15.00
2022-10-21T05:30:24.380Z,15.10
2022-10-21T05:32:54.490Z,15.20
2022-10-21T05:35:24.554Z,15.30
2022-10-21T05:37:54.665Z,15.50
2022-10-21T05:40:29.498Z,15.50
2022-10-21T05:43:02.078Z,15.60
2022-10-21T05:45:32.189Z,15.60
2022-10-21T05:48:04.656Z,15.60
2022-10-21T05:50:34.731Z,15.70
2022-10-21T05:53:04.792Z,15.60
2022-10-21T05:55:39.916Z,15.70
2022-10-21T05:58:10.108Z,15.70
2022-10-21T06:00:44.011Z,15.60
2022-10-21T06:03:16.930Z,15.70
2022-10-21T06:06:02.272Z,15.60
2022-10-21T06:08:39.123Z,15.50
2022-10-21T06:11:25.073Z,15.50
2022-10-21T06:13:57.393Z,15.50
2022-10-21T06:16:27.608Z,15.50
2022-10-21T06:18:57.744Z,15.40
2022-10-21T06:21:27.833Z,15.30
2022-10-21T06:23:58.206Z,15.30
2022-10-21T06:26:36.107Z,15.30
2022-10-21T06:29:15.882Z,15.30
2022-10-21T06:31:46.056Z,15.20
2022-10-21T06:34:19.149Z,15.20
2022-10-21T06:36:49.342Z,15.20
2022-10-21T06:39:22.413Z,15.20
2022-10-21T06:41:55.216Z,15.10
2022-10-21T06:44:25.335Z,15.10
2022-10-21T06:46:58.419Z,15.00
2022-10-21T06:49:34.673Z,15.00
2022-10-21T06:52:05.120Z,15.00
2022-10-21T06:54:35.340Z,15.10
2022-10-21T06:57:10.589Z,15.10
2022-10-21T06:59:43.667Z,15.10
2022-10-21T07:02:13.693Z,15.20
2022-10-21T07:04:49.124Z,15.30
2022-10-21T07:07:19.402Z,15.40
2022-10-21T07:09:52.658Z,15.50
2022-10-21T07:12:25.267Z,15.60
2022-10-21T07:14:58.467Z,15.70
2022-10-21T07:17:31.203Z,15.70
2022-10-21T07:20:01.368Z,15.70
2022-10-21T07:22:35.656Z,15.70
2022-10-21T07:25:06.374Z,15.80
2022-10-21T07:27:39.946Z,15.80
2022-10-21T07:30:17.870Z,15.90
2022-10-21T07:32:52.554Z,15.80
2022-10-21T07:35:28.585Z,15.80
2022-10-21T07:37:58.667Z,15.80
2022-10-21T07:40:29.113Z,15.70
2022-10-21T07:43:04.034Z,15.70
2022-10-21T07:45:37.112Z,15.70
2022-10-21T07:48:07.551Z,15.80
2022-10-21T07:50:37.992Z,15.80
2022-10-21T07:53:12.388Z,15.80
2022-10-21T07:55:43.123Z,15.70
2022-10-21T07:58:15.782Z,15.70
2022-10-21T08:00:47.313Z,15.70
2022-10-21T08:03:17.475Z,15.80
2022-10-21T08:05:47.590Z,15.80
2022-10-21T08:08:17.669Z,15.80
2022-10-21T08:10:47.876Z,15.90
2022-10-21T08:13:24.502Z,15.90
2022-10-21T08:15:57.482Z,16.00
2022-10-21T08:18:31.232Z,16.00
2022-10-21T08:21:07.132Z,16.00
2022-10-21T08:23:38.314Z,16.00
2022-10-21T08:26:20.620Z,16.00
2022-10-21T08:29:01.413Z,15.90
2022-10-21T08:31:31.561Z,16.00
2022-10-21T08:34:01.644Z,16.00
2022-10-21T08:36:31.857Z,16.00
2022-10-21T08:39:05.118Z,16.00
2022-10-21T08:42:01.734Z,16.00
2022-10-21T08:44:52.986Z,16.00
2022-10-21T08:47:35.798Z,16.00
2022-10-21T08:50:12.974Z,15.90
2022-10-21T08:52:53.339Z,15.90
2022-10-21T08:55:40.144Z,15.90
2022-10-21T08:58:18.496Z,16.00
2022-10-21T09:01:12.176Z,16.00
2022-10-21T09:03:54.405Z,16.00
2022-10-21T09:06:36.357Z,15.90
2022-10-21T09:09:23.504Z,16.00
2022-10-21T09:12:06.156Z,16.00
2022-10-21T09:15:23.012Z,15.90
2022-10-21T09:18:31.819Z,15.80
2022-10-21T09:21:25.978Z,15.80
2022-10-21T09:24:10.581Z,15.70
2022-10-21T09:26:46.380Z,15.70
2022-10-21T09:29:31.221Z,15.70
2022-10-21T09:32:17.511Z,15.70
2022-10-21T09:34:59.105Z,15.60
2022-10-21T09:37:38.796Z,15.70
2022-10-21T09:40:21.636Z,15.70
2022-10-21T09:42:56.590Z,15.70
2022-10-21T09:45:41.987Z,15.70
2022-10-21T09:48:41.747Z,15.70
2022-10-21T09:51:32.295Z,15.80
2022-10-21T09:54:12.315Z,15.80
2022-10-21T09:56:50.579Z,15.80
2022-10-21T09:59:29.056Z,15.80
2022-10-21T10:02:10.529Z,15.80
2022-10-21T10:04:40.799Z,15.80
2022-10-21T10:07:37.517Z,15.90
2022-10-21T10:10:36.172Z,16.00
2022-10-21T10:13:06.260Z,16.10
2022-10-21T10:15:42.876Z,16.20
2022-10-21T10:18:24.360Z,16.20
2022-10-21T10:21:09.591Z,16.30
2022-10-21T10:23:51.098Z,16.30
2022-10-21T10:26:31.617Z,16.40
2022-10-21T10:29:15.664Z,16.50
2022-10-21T10:31:52.074Z,16.60
2022-10-21T10:34:27.347Z,16.80
2022-10-21T10:37:09.607Z,16.80
2022-10-21T10:39:42.998Z,16.90
2022-10-21T10:42:20.922Z,16.80
2022-10-21T10:45:03.007Z,16.80
2022-10-21T10:47:41.183Z,16.80
2022-10-21T10:50:44.976Z,16.80
2022-10-21T10:53:33.171Z,16.90
2022-10-21T10:56:25.675Z,16.90
2022-10-21T10:59:17.280Z,16.90
2022-10-21T11:01:56.883Z,17.00
2022-10-21T11:04:36.756Z,17.00
2022-10-21T11:07:26.083Z,17.20
2022-10-21T11:10:07.215Z,17.40
2022-10-21T11:12:38.368Z,17.80
2022-10-21T11:15:20.635Z,18.10
2022-10-21T11:18:23.088Z,18.50
2022-10-21T11:21:09.534Z,19.10
2022-10-21T11:24:35.491Z,19.40
2022-10-21T11:27:20.220Z,19.50
2022-10-21T11:30:05.357Z,19.70
2022-10-21T11:33:05.597Z,19.70
2022-10-21T11:35:46.220Z,19.70
2022-10-21T11:38:49.927Z,19.80
2022-10-21T11:41:35.458Z,20.20
2022-10-21T11:44:25.048Z,20.70
2022-10-21T11:47:13.754Z,21.10
2022-10-21T11:50:06.691Z,21.50
2022-10-21T11:52:48.102Z,21.60
2022-10-21T11:55:40.300Z,21.60
2022-10-21T11:58:32.591Z,21.40
2022-10-21T12:01:25.789Z,21.20
2022-10-21T12:04:39.438Z,21.30
2022-10-21T12:07:50.025Z,21.30
2022-10-21T12:10:35.423Z,21.00
2022-10-21T12:13:17.615Z,20.70
2022-10-21T12:15:52.718Z,20.40
2022-10-21T12:18:32.224Z,20.40
2022-10-21T12:21:03.610Z,20.40
2022-10-21T12:23:36.523Z,20.20
2022-10-21T12:26:20.985Z,20.20
2022-10-21T12:29:03.612Z,20.00
2022-10-21T12:31:48.362Z,20.10
2022-10-21T12:34:19.184Z,20.00
2022-10-21T12:36:53.574Z,19.90
2022-10-21T12:39:53.827Z,19.80
2022-10-21T12:42:38.825Z,19.80
2022-10-21T12:45:30.540Z,19.70
2022-10-21T12:48:03.415Z,19.70
2022-10-21T12:50:44.387Z,19.70
2022-10-21T12:53:59.168Z,19.90
2022-10-21T12:56:37.636Z,20.20
2022-10-21T12:59:32.918Z,20.20
2022-10-21T13:02:28.333Z,20.20
2022-10-21T13:05:01.180Z,20.20
2022-10-21T13:08:27.360Z,20.20
2022-10-21T13:11:24.013Z,20.10
2022-10-21T13:14:41.065Z,20.00
2022-10-21T13:17:50.676Z,20.10
2022-10-21T13:20:51.148Z,20.10
2022-10-21T13:23:50.439Z,20.10
2022-10-21T13:26:27.707Z,20.20
2022-10-21T13:29:44.008Z,20.30
2022-10-21T13:32:31.798Z,20.40
2022-10-21T13:35:33.127Z,20.70
2022-10-21T13:38:20.259Z,20.90
2022-10-21T13:40:57.839Z,21.00
2022-10-21T13:43:31.365Z,21.10
2022-10-21T13:46:16.725Z,20.90
2022-10-21T13:49:05.890Z,20.60
2022-10-21T13:51:47.622Z,20.30
2022-10-21T13:54:19.367Z,20.10
2022-10-21T13:56:50.203Z,20.10
2022-10-21T13:59:40.490Z,20.10
2022-10-21T14:02:28.455Z,20.00
2022-10-21T14:04:58.627Z,20.00
2022-10-21T14:07:30.795Z,19.90
2022-10-21T14:10:07.500Z,20.00
2022-10-21T14:12:47.337Z,20.00
2022-10-21T14:15:22.033Z,20.10
2022-10-21T14:17:59.755Z,20.00
2022-10-21T14:20:47.292Z,20.00
2022-10-21T14:23:24.174Z,20.00
2022-10-21T14:25:57.099Z,19.90
2022-10-21T14:28:27.405Z,19.70
2022-10-21T14:30:58.481Z,19.60
2022-10-21T14:33:39.372Z,19.50
2022-10-21T14:36:18.995Z,19.40
2022-10-21T14:38:59.292Z,19.20
2022-10-21T14:41:35.362Z,19.20
2022-10-21T14:44:16.999Z,19.10
2022-10-21T14:46:53.673Z,19.10
2022-10-21T14:49:34.590Z,19.10
2022-10-21T14:52:09.440Z,19.20
2022-10-21T14:54:47.861Z,19.20
2022-10-21T14:57:43.311Z,19.10
2022-10-21T15:00:29.880Z,19.10
2022-10-21T15:03:02.231Z,18.90
2022-10-21T15:05:49.968Z,19.00
2022-10-21T15:08:37.458Z,18.90
2022-10-21T15:12:33.237Z,18.90
2022-10-21T15:15:07.964Z,18.80
2022-10-21T15:17:40.682Z,18.70
2022-10-21T15:20:19.485Z,18.70
2022-10-21T15:22:54.670Z,18.60
2022-10-21T15:28:26.149Z,18.50
2022-10-21T15:31:02.506Z,18.40
2022-10-21T15:33:33.196Z,18.40
2022-10-21T15:36:08.725Z,18.30
2022-10-21T15:38:47.338Z,18.10
2022-10-21T15:41:20.198Z,18.20
2022-10-21T15:44:03.957Z,18.10
2022-10-21T15:46:46.277Z,18.00
2022-10-21T15:49:29.147Z,17.90
2022-10-21T15:51:59.256Z,17.90
2022-10-21T15:54:32.034Z,17.80
2022-10-21T15:57:04.492Z,17.80
2022-10-21T15:59:49.178Z,17.70
2022-10-21T16:02:20.640Z,17.60
2022-10-21T16:04:53.012Z,17.50
2022-10-21T16:07:29.397Z,17.40
2022-10-21T16:10:03.696Z,17.30
2022-10-21T16:12:33.799Z,17.30
2022-10-21T16:15:11.362Z,17.10
2022-10-21T16:17:42.609Z,17.00
2022-10-21T16:20:17.765Z,16.90
2022-10-21T16:22:58.075Z,16.80
2022-10-21T16:25:41.337Z,16.80
2022-10-21T16:28:15.974Z,16.70
2022-10-21T16:30:46.071Z,16.70
2022-10-21T16:33:16.204Z,16.60
2022-10-21T16:35:48.612Z,16.50
2022-10-21T16:38:21.683Z,16.50
2022-10-21T16:40:58.984Z,16.50
2022-10-21T16:43:29.098Z,16.40
2022-10-21T16:46:02.160Z,16.40
2022-10-21T16:48:32.342Z,16.40
2022-10-21T16:51:05.090Z,16.40
2022-10-21T16:53:35.193Z,16.40
2022-10-21T16:56:08.526Z,16.40
2022-10-21T16:58:38.776Z,16.30
2022-10-21T17:01:20.538Z,16.20
2022-10-21T17:03:53.298Z,16.10
2022-10-21T17:06:26.664Z,16.10
2022-10-21T17:09:02.728Z,16.00
2022-10-21T17:11:38.645Z,16.00
2022-10-21T17:14:12.309Z,16.00
2022-10-21T17:16:43.061Z,16.00
2022-10-21T17:19:13.833Z,15.90
2022-10-21T17:21:45.333Z,15.80
2022-10-21T17:24:20.002Z,15.70
2022-10-21T17:26:53.282Z,15.70
2022-10-21T17:29:24.198Z,15.70
2022-10-21T17:31:54.970Z,15.60
2022-10-21T17:34:32.129Z,15.60
2022-10-21T17:37:03.861Z,15.50
2022-10-21T17:39:34.829Z,15.50
2022-10-21T17:42:08.760Z,15.50
2022-10-21T17:44:39.794Z,15.40
2022-10-21T17:47:10.632Z,15.50
2022-10-21T17:49:41.953Z,15.40
2022-10-21T17:52:13.047Z,15.30
2022-10-21T17:54:43.862Z,15.30
2022-10-21T17:57:17.285Z,15.30
2022-10-21T17:59:50.677Z,15.20
2022-10-21T18:02:22.776Z,15.10
2022-10-21T18:04:53.609Z,15.20
2022-10-21T18:07:24.605Z,15.20
2022-10-21T18:09:55.725Z,15.20
2022-10-21T18:12:30.446Z,15.10
2022-10-21T18:15:01.403Z,15.00
2022-10-21T18:17:32.284Z,15.00
2022-10-21T18:20:02.789Z,15.00
2022-10-21T18:22:39.493Z,15.00
2022-10-21T18:25:11.322Z,15.10
2022-10-21T18:27:50.091Z,15.10
2022-10-21T18:30:20.429Z,15.00
2022-10-21T18:32:53.570Z,15.00
2022-10-21T18:35:23.874Z,15.00
2022-10-21T18:37:56.704Z,14.90
2022-10-21T18:40:29.477Z,14.90
2022-10-21T18:43:05.259Z,14.90
2022-10-21T18:45:35.415Z,14.90
2022-10-21T18:48:05.891Z,14.90
2022-10-21T18:50:39.288Z,14.90
2022-10-21T18:53:09.378Z,14.90
2022-10-21T18:55:42.808Z,14.90
2022-10-21T18:58:35.049Z,14.90
2022-10-21T19:01:06.106Z,14.90
2022-10-21T19:03:36.588Z,14.80
2022-10-21T19:06:21.485Z,14.80
2022-10-21T19:08:52.033Z,14.80
2022-10-21T19:11:22.983Z,14.70
2022-10-21T19:13:56.652Z,14.70
2022-10-21T19:16:28.066Z,14.60
2022-10-21T19:18:58.904Z,14.60
2022-10-21T19:21:29.929Z,14.50
2022-10-21T19:24:03.430Z,14.50
2022-10-21T19:26:35.394Z,14.50
2022-10-21T19:29:13.264Z,14.60
2022-10-21T19:31:44.514Z,14.50
2022-10-21T19:34:16.011Z,14.50
2022-10-21T19:36:46.404Z,14.40
2022-10-21T19:39:23.937Z,14.30
2022-10-21T19:41:54.066Z,14.30
2022-10-21T19:44:28.954Z,14.30
2022-10-21T19:47:01.826Z,14.30
2022-10-21T19:49:32.928Z,14.40
2022-10-21T19:52:06.054Z,14.40
2022-10-21T19:54:36.219Z,14.50
2022-10-21T19:57:08.503Z,14.50
2022-10-21T19:59:41.305Z,14.50
2022-10-21T20:02:21.290Z,14.50
2022-10-21T20:04:51.383Z,14.50
2022-10-21T20:07:24.485Z,14.60
2022-10-21T20:09:57.283Z,14.60
2022-10-21T20:12:30.142Z,14.70
2022-10-21T20:15:02.879Z,14.70
2022-10-21T20:17:34.177Z,14.80
2022-10-21T20:20:04.816Z,14.80
2022-10-21T20:22:37.077Z,14.80
2022-10-21T20:25:10.512Z,14.70
2022-10-21T20:27:41.358Z,14.80
2022-10-21T20:30:15.368Z,14.80
2022-10-21T20:32:45.952Z,14.80
2022-10-21T20:35:16.124Z,14.80
2022-10-21T20:37:46.216Z,14.70
2022-10-21T20:40:20.504Z,14.70
2022-10-21T20:42:53.678Z,14.80
2022-10-21T20:45:29.308Z,14.80
2022-10-21T20:47:59.471Z,14.80
2022-10-21T20:50:32.689Z,14.80
2022-10-21T20:53:02.741Z,14.80
2022-10-21T20:55:41.357Z,14.70
2022-10-21T20:58:11.475Z,14.70
2022-10-21T21:00:46.469Z,14.80
2022-10-21T21:03:25.851Z,14.70
2022-10-21T21:05:55.892Z,14.60
2022-10-21T21:08:25.959Z,14.60
2022-10-21T21:10:56.044Z,14.50
2022-10-21T21:13:26.200Z,14.50
2022-10-21T21:16:07.145Z,14.40
2022-10-21T21:18:38.131Z,14.40
2022-10-21T21:21:10.503Z,14.40
2022-10-21T21:23:43.603Z,14.40
2022-10-21T21:26:21.368Z,14.40
2022-10-21T21:28:53.485Z,14.40
2022-10-21T21:31:31.848Z,14.40
2022-10-21T21:34:02.686Z,14.50
2022-10-21T21:36:32.845Z,14.50
2022-10-21T21:39:05.214Z,14.60
2022-10-21T21:41:35.570Z,14.60
2022-10-21T21:44:07.822Z,14.70
2022-10-21T21:46:40.618Z,14.70
2022-10-21T21:49:10.787Z,14.80
2022-10-21T21:51:43.678Z,14.70
2022-10-21T21:54:13.895Z,14.70
2022-10-21T21:56:46.808Z,14.60
2022-10-21T21:59:19.807Z,14.60
2022-10-21T22:01:52.523Z,14.70
2022-10-21T22:04:22.600Z,14.70
2022-10-21T22:06:59.146Z,14.60
2022-10-21T22:09:32.138Z,14.60
2022-10-21T22:12:02.204Z,14.60
2022-10-21T22:14:32.352Z,14.60
2022-10-21T22:17:05.072Z,14.60
2022-10-21T22:19:37.686Z,14.60
2022-10-21T22:22:10.124Z,14.50
2022-10-21T22:24:40.278Z,14.50
2022-10-21T22:27:13.014Z,14.60
2022-10-21T22:29:43.096Z,14.60
2022-10-21T22:32:18.104Z,14.60
2022-10-21T22:34:48.539Z,14.50
2022-10-21T22:37:18.640Z,14.50
2022-10-21T22:39:50.800Z,14.50
2022-10-21T22:42:26.651Z,14.50
2022-10-21T22:44:56.761Z,14.50
2022-10-21T22:47:31.550Z,14.50
2022-10-21T22:50:04.017Z,14.50
2022-10-21T22:52:34.072Z,14.50
2022-10-21T22:55:04.208Z,14.50
2022-10-21T22:57:37.344Z,14.50
2022-10-21T23:00:11.695Z,14.50
2022-10-21T23:02:49.718Z,14.50
2022-10-21T23:05:26.334Z,14.50
2022-10-21T23:07:56.452Z,14.50
2022-10-21T23:10:26.542Z,14.60
2022-10-21T23:12:58.766Z,14.50
2022-10-21T23:15:29.076Z,14.50
2022-10-21T23:18:01.879Z,14.40
2022-10-21T23:20:35.445Z,14.40
2022-10-21T23:23:05.550Z,14.40
2022-10-21T23:25:36.168Z,14.40
2022-10-21T23:28:09.702Z,14.30
2022-10-21T23:30:40.879Z,14.40
2022-10-21T23:33:13.741Z,14.40
2022-10-21T23:35:44.049Z,14.40
2022-10-21T23:38:14.140Z,14.40
2022-10-21T23:40:44.261Z,14.40
2022-10-21T23:43:16.475Z,14.40
2022-10-21T23:45:46.580Z,14.40
2022-10-21T23:48:19.793Z,14.50
2022-10-21T23:50:49.968Z,14.50
2022-10-21T23:53:23.121Z,14.50
2022-10-21T23:55:53.196Z,14.60
2022-10-21T23:58:23.266Z,14.60
